Aeroporto :
LOGIN :

Iscrizione | Disclaimer

   EN    FR    IT 

 










Sommario :    VFR   VFR Marginale   IFR   IFR Intensivo   IFR Molto Intensivo
Visibilità : 
Base nubi : 
>= 8 km
>= 3000ft
5 / 8 km
1000 / 3000 ft
1500m / 5 km
500 / 1000 ft
800 / 1500m
200 / 500 ft
< 800m
< 200 ft
Simboli :   Temporali  Nebbia  Neve Forte  Precipitazioni Forti  Vento > 20 kt
SIGMETs :   Varie  Temporali  Ghiacco  Turbolenza  Onda orograficha  Ceneri Vulcaniche






- Altitudine del aeroporto : 23 ft
- Codice IATA : XFW


EDHI - Hamburg Finkenwerder

ULTIMO METAR :
  • 201120Z 25003KT 210V270 3900 -RA BR OVC003 04/04 Q1019

METARs OBSOLETI :
  • 201050Z 24003KT 2900 -RA BR OVC002 04/04 Q1019
  • 201020Z 23003KT 200V260 1600 -RA BR OVC002 04/04 Q1019
  • 200950Z 24003KT 210V270 1900 BR OVC002 03/03 Q1019
  • 200920Z VRB01KT 0800 R05/1000U FG BKN001 OVC005 03/03 Q1019
  • 200850Z 23003KT 0700 R23/1400D FG SCT002 OVC004 03/03 Q1020

TAF TAF EDHI
Valido dal 20 a 09 ore il 20 a 18 ore UTC


200800Z 2009/2018 VRB03KT 0600 FG OVC001
BECMG 2009/2011 1500 BR BKN004
TEMPO 2010/2018 4000 -RA SCT006 BKN015
PROB40
TEMPO 2010/2016 6000 BKN006



MetMap, La meteo Aeronautica in un colpo d'occhio ! - Copyright ORBIFLY Dicembre 2007 - Disclaimer

ORBIFLY MET'MAP TEAM :

Programmazione e sviluppo : Alexandra Zaïnal
Concezione e sviluppo : Baudouin d'Aumeries
Co-Programmazione e sviluppo : Marc-Olivier Méhu
Supporto tecnico e logistico : Manuel Goepfert
Aiuto per la traduzione : Arnaldo La Scala

Contatto : metmap@orbifly.com




FONTI E CREDITI :

   NOAA